Polaris — JD2797 — position and weather

sailwx.info

Track history (hours):
 
Tides and Currents Weather Stations Pressure Air Temp Water Temp Dewpoint Dewpoint Depression Visibility Wind Speed Wind Dir Waves Ship Positions

Polaris

Last reported at 2016-Feb-12 23:30 UTC. Time now 2016-Feb-14 16:57 UTC.
Position N 35°27' E 139°40'.

Length 30 m; draft 2.6 m.

Type: Pilot. MMSI: 431000764.

Date/timePositionNaut miles runAvg speedWind from/ knotsBaromVisibWave heightAir tempDewpointWater temp
2016-Feb-12 23:30N 35°27' E 139°40'6 6.7
2016-Feb-12 22:34N 35°22' E 139°45'1211.3
2016-Feb-12 21:31N 35°11' E 139°47'9 9.6
2016-Feb-12 20:33N 35°19' E 139°42'8 7.8
2016-Feb-12 19:34N 35°27' E 139°40'  
2016-Feb-10 05:11N 35°27' E 139°40'0 0.0
2016-Feb-10 04:33N 35°27' E 139°40'0 0.0
2016-Feb-10 03:34N 35°27' E 139°40'0 0.2
2016-Feb-10 02:33N 35°27' E 139°40'0 0.2
2016-Feb-10 01:33N 35°27' E 139°40'0 0.0
2016-Feb-10 00:33N 35°27' E 139°40'0 0.0
2016-Feb-09 23:34N 35°27' E 139°40'0 0.0
2016-Feb-09 22:33N 35°27' E 139°40'0 0.0
2016-Feb-09 21:33N 35°27' E 139°40'0 0.0
2016-Feb-09 20:33N 35°27' E 139°40'0 0.0
2016-Feb-09 19:34N 35°27' E 139°40'0 0.0
2016-Feb-09 18:34N 35°27' E 139°40'0 0.0
2016-Feb-09 17:34N 35°27' E 139°40'0 0.0
2016-Feb-09 16:33N 35°27' E 139°40'4 4.2
2016-Feb-09 15:33N 35°23' E 139°42'3 2.9
2016-Feb-09 14:33N 35°26' E 139°42'2 2.2
2016-Feb-09 13:34N 35°27' E 139°40'0 0.0
2016-Feb-09 12:33N 35°27' E 139°40'0 0.0
2016-Feb-09 11:33N 35°27' E 139°40'0 0.0
2016-Feb-09 10:33N 35°27' E 139°40'0 0.0
2016-Feb-09 09:34N 35°27' E 139°40'1010.2
2016-Feb-09 08:33N 35°17' E 139°45'7 7.3
2016-Feb-09 07:33N 35°10' E 139°46'1110.9
2016-Feb-09 06:33N 35°21' E 139°42'6 6.4
2016-Feb-09 05:33N 35°27' E 139°40'0 0.0
2016-Feb-09 04:33N 35°27' E 139°40'1 0.1
2016-Feb-08 17:34N 35°27' E 139°41'1514.3
2016-Feb-08 16:32N 35°12' E 139°46'1111.6
2016-Feb-08 15:33N 35°24' E 139°43'3 3.1
2016-Feb-08 14:33N 35°27' E 139°42'2 0.1
2016-Feb-07 12:13N 35°27' E 139°40'4 6.3
2016-Feb-07 11:33N 35°23' E 139°41'10 9.9
2016-Feb-07 10:32N 35°14' E 139°46'1312.9
2016-Feb-07 09:33N 35°26' E 139°42'1 0.9
2016-Feb-07 08:33N 35°26' E 139°42'2 1.5
2016-Feb-07 07:34N 35°27' E 139°40'0 0.0
2016-Feb-07 06:34N 35°27' E 139°40'0 0.0
2016-Feb-07 05:34N 35°27' E 139°40'0 0.0
2016-Feb-07 04:34N 35°27' E 139°40'3 2.9
2016-Feb-07 03:34N 35°24' E 139°42'10 8.3
2016-Feb-07 02:21N 35°15' E 139°46'911.4
2016-Feb-07 01:34N 35°23' E 139°41'2 2.0
2016-Feb-07 00:34N 35°24' E 139°38'4 3.9
2016-Feb-06 23:33N 35°27' E 139°41'1 0.9
2016-Feb-06 22:33N 35°27' E 139°40'  
2016-Feb-04 06:34N 35°29' E 139°41'1 0.5
2016-Feb-04 05:34N 35°29' E 139°42'3 2.8
2016-Feb-04 04:33N 35°27' E 139°40'0 0.0
2016-Feb-04 03:34N 35°27' E 139°40'0 0.0
2016-Feb-04 02:34N 35°27' E 139°40'0 0.4
2016-Feb-04 01:33N 35°27' E 139°40'8 7.5
2016-Feb-04 00:33N 35°20' E 139°44'1010.0
2016-Feb-03 23:33N 35°10' E 139°47'10 9.8
2016-Feb-03 22:34N 35°19' E 139°42'8 7.5
2016-Feb-03 21:33N 35°27' E 139°40'  
Track history (hours):
 
Tides and Currents Weather Stations Pressure Air Temp Water Temp Dewpoint Dewpoint Depression Visibility Wind Speed Wind Dir Waves Ship Positions

Polaris

Last reported at 2016-Feb-12 23:30 UTC. Time now 2016-Feb-14 16:57 UTC.
Position N 35°27' E 139°40'.

Length 30 m; draft 2.6 m.

Type: Pilot. MMSI: 431000764.

Date/timePositionNaut miles runAvg speedWind from/ knotsBaromVisibWave heightAir tempDewpointWater temp
2016-Feb-12 23:30N 35°27' E 139°40'6 6.7
2016-Feb-12 22:34N 35°22' E 139°45'1211.3
2016-Feb-12 21:31N 35°11' E 139°47'9 9.6
2016-Feb-12 20:33N 35°19' E 139°42'8 7.8
2016-Feb-12 19:34N 35°27' E 139°40'  
2016-Feb-10 05:11N 35°27' E 139°40'0 0.0
2016-Feb-10 04:33N 35°27' E 139°40'0 0.0
2016-Feb-10 03:34N 35°27' E 139°40'0 0.2
2016-Feb-10 02:33N 35°27' E 139°40'0 0.2
2016-Feb-10 01:33N 35°27' E 139°40'0 0.0
2016-Feb-10 00:33N 35°27' E 139°40'0 0.0
2016-Feb-09 23:34N 35°27' E 139°40'0 0.0
2016-Feb-09 22:33N 35°27' E 139°40'0 0.0
2016-Feb-09 21:33N 35°27' E 139°40'0 0.0
2016-Feb-09 20:33N 35°27' E 139°40'0 0.0
2016-Feb-09 19:34N 35°27' E 139°40'0 0.0
2016-Feb-09 18:34N 35°27' E 139°40'0 0.0
2016-Feb-09 17:34N 35°27' E 139°40'0 0.0
2016-Feb-09 16:33N 35°27' E 139°40'4 4.2
2016-Feb-09 15:33N 35°23' E 139°42'3 2.9
2016-Feb-09 14:33N 35°26' E 139°42'2 2.2
2016-Feb-09 13:34N 35°27' E 139°40'0 0.0
2016-Feb-09 12:33N 35°27' E 139°40'0 0.0
2016-Feb-09 11:33N 35°27' E 139°40'0 0.0
2016-Feb-09 10:33N 35°27' E 139°40'0 0.0
2016-Feb-09 09:34N 35°27' E 139°40'1010.2
2016-Feb-09 08:33N 35°17' E 139°45'7 7.3
2016-Feb-09 07:33N 35°10' E 139°46'1110.9
2016-Feb-09 06:33N 35°21' E 139°42'6 6.4
2016-Feb-09 05:33N 35°27' E 139°40'0 0.0
2016-Feb-09 04:33N 35°27' E 139°40'1 0.1
2016-Feb-08 17:34N 35°27' E 139°41'1514.3
2016-Feb-08 16:32N 35°12' E 139°46'1111.6
2016-Feb-08 15:33N 35°24' E 139°43'3 3.1
2016-Feb-08 14:33N 35°27' E 139°42'2 0.1
2016-Feb-07 12:13N 35°27' E 139°40'4 6.3
2016-Feb-07 11:33N 35°23' E 139°41'10 9.9
2016-Feb-07 10:32N 35°14' E 139°46'1312.9
2016-Feb-07 09:33N 35°26' E 139°42'1 0.9
2016-Feb-07 08:33N 35°26' E 139°42'2 1.5
2016-Feb-07 07:34N 35°27' E 139°40'0 0.0
2016-Feb-07 06:34N 35°27' E 139°40'0 0.0
2016-Feb-07 05:34N 35°27' E 139°40'0 0.0
2016-Feb-07 04:34N 35°27' E 139°40'3 2.9
2016-Feb-07 03:34N 35°24' E 139°42'10 8.3
2016-Feb-07 02:21N 35°15' E 139°46'911.4
2016-Feb-07 01:34N 35°23' E 139°41'2 2.0
2016-Feb-07 00:34N 35°24' E 139°38'4 3.9
2016-Feb-06 23:33N 35°27' E 139°41'1 0.9
2016-Feb-06 22:33N 35°27' E 139°40'  
2016-Feb-04 06:34N 35°29' E 139°41'1 0.5
2016-Feb-04 05:34N 35°29' E 139°42'3 2.8
2016-Feb-04 04:33N 35°27' E 139°40'0 0.0
2016-Feb-04 03:34N 35°27' E 139°40'0 0.0
2016-Feb-04 02:34N 35°27' E 139°40'0 0.4
2016-Feb-04 01:33N 35°27' E 139°40'8 7.5
2016-Feb-04 00:33N 35°20' E 139°44'1010.0
2016-Feb-03 23:33N 35°10' E 139°47'10 9.8
2016-Feb-03 22:34N 35°19' E 139°42'8 7.5
2016-Feb-03 21:33N 35°27' E 139°40'  

Dump ship's entire track history